Time;durP1;ratioP1;P1;durP2;ratioP2;P2;SDS_P1;SDS_P2;PMS_P1;PMS_P2;Temp;Humidity;BMP_temperature;BMP_pressure;BME280_temperature;BME280_humidity;BME280_pressure;Samples;Min_cycle;Max_cycle;Signal;HPM_P1;HPM_P2
2022/04/22 00:01:01;;;;;;;29.02;14.70;;;;;;;8.92;nan;100061.13;5040530;28;20573;-73
2022/04/22 00:03:27;;;;;;;22.67;14.80;;;;;;;8.86;nan;100056.75;5009642;28;20033;-72
2022/04/22 00:05:52;;;;;;;25.02;14.75;;;;;;;8.94;nan;100066.94;5011553;28;20042;-73
2022/04/22 00:08:18;;;;;;;22.38;14.50;;;;;;;8.93;nan;100060.91;5009661;28;20038;-71
2022/04/22 00:13:27;;;;;;;26.38;14.25;;;;;;;8.79;nan;100035.03;5009107;28;20038;-73
2022/04/22 00:15:53;;;;;;;23.73;14.38;;;;;;;8.73;nan;100027.00;5009614;28;20030;-72
2022/04/22 00:18:19;;;;;;;23.15;14.90;;;;;;;8.91;nan;100046.41;5009211;28;20480;-71
2022/04/22 00:20:45;;;;;;;26.65;14.18;;;;;;;8.85;nan;100044.66;5007255;28;20033;-72
2022/04/22 00:23:10;;;;;;;22.75;13.82;;;;;;;8.82;nan;100032.78;5010247;28;20037;-71
2022/04/22 00:25:36;;;;;;;22.60;14.35;;;;;;;8.81;nan;100025.09;5007729;28;20056;-71
2022/04/22 00:28:02;;;;;;;24.75;14.70;;;;;;;8.81;nan;100025.94;5005872;28;20441;-72
2022/04/22 00:30:29;;;;;;;20.95;13.68;;;;;;;8.88;nan;100036.31;5007052;28;20028;-72
2022/04/22 00:32:54;;;;;;;25.63;14.52;;;;;;;8.81;nan;100025.09;5010136;28;20151;-72
2022/04/22 00:35:20;;;;;;;23.98;14.63;;;;;;;8.87;nan;100030.28;5010886;28;20455;-71
2022/04/22 00:37:46;;;;;;;23.38;14.07;;;;;;;8.87;nan;100026.84;5009984;28;20060;-74
2022/04/22 00:40:12;;;;;;;22.20;13.27;;;;;;;8.80;nan;100019.06;5010806;28;20109;-74
2022/04/22 00:42:38;;;;;;;20.02;12.88;;;;;;;8.72;nan;100003.63;5007879;28;20121;-72
2022/04/22 00:45:04;;;;;;;20.13;12.35;;;;;;;8.83;nan;100004.69;5010349;28;20380;-71
2022/04/22 00:47:29;;;;;;;19.90;12.82;;;;;;;8.76;nan;99990.84;5010692;28;20037;-71
2022/04/22 00:49:55;;;;;;;20.10;12.70;;;;;;;8.80;nan;100011.19;5010578;28;20507;-72
2022/04/22 00:52:22;;;;;;;22.17;12.75;;;;;;;8.84;nan;99996.59;5010688;28;20029;-71
2022/04/22 00:54:48;;;;;;;18.30;11.35;;;;;;;8.83;nan;99991.56;5010477;28;20034;-73
2022/04/22 00:57:15;;;;;;;19.65;12.00;;;;;;;8.76;nan;99977.72;5010550;28;20124;-72
2022/04/22 00:59:40;;;;;;;22.13;12.10;;;;;;;8.69;nan;99973.38;5024580;28;20073;-72
2022/04/22 01:02:06;;;;;;;21.10;11.65;;;;;;;8.81;nan;99990.97;5010786;28;20061;-72
2022/04/22 01:10:00;;;;;;;21.90;11.85;;;;;;;8.70;nan;99967.09;5008207;28;20391;-72
2022/04/22 01:12:26;;;;;;;18.90;11.07;;;;;;;8.61;nan;99939.53;5005787;28;20030;-73
2022/04/22 01:14:52;;;;;;;15.70;10.60;;;;;;;8.64;nan;99954.03;5007837;28;20036;-72
2022/04/22 01:17:18;;;;;;;16.40;11.05;;;;;;;8.55;nan;99932.59;5008853;28;20088;-73
2022/04/22 01:19:43;;;;;;;18.52;10.90;;;;;;;8.53;nan;99913.63;5010027;28;20038;-73
2022/04/22 01:22:09;;;;;;;16.85;10.60;;;;;;;8.59;nan;99933.72;5009383;28;20052;-72
2022/04/22 01:24:35;;;;;;;16.45;10.05;;;;;;;8.51;nan;99918.28;5006483;28;20049;-73
2022/04/22 01:27:01;;;;;;;15.40;8.55;;;;;;;8.61;nan;99918.56;5008397;28;20046;-73
2022/04/22 01:29:27;;;;;;;14.88;8.50;;;;;;;8.55;nan;99916.84;5008726;28;20455;-72
2022/04/22 01:31:52;;;;;;;15.00;9.07;;;;;;;8.36;nan;99896.88;5007999;28;20038;-72
2022/04/22 01:34:18;;;;;;;14.80;8.90;;;;;;;8.61;nan;99939.53;5007388;28;20038;-72
2022/04/22 01:36:43;;;;;;;12.45;8.07;;;;;;;8.65;nan;99953.03;5009341;28;20391;-71
2022/04/22 01:39:09;;;;;;;15.20;8.57;;;;;;;8.64;nan;99948.78;5007737;28;20383;-71
2022/04/22 01:41:34;;;;;;;11.25;7.93;;;;;;;8.57;nan;99917.41;5009324;28;20554;-71
2022/04/22 01:44:00;;;;;;;11.40;7.70;;;;;;;8.62;nan;99917.53;5009796;28;20709;-72
2022/04/22 01:46:25;;;;;;;11.77;7.75;;;;;;;8.59;nan;99912.72;5010289;28;20084;-71
2022/04/22 01:48:51;;;;;;;12.68;8.00;;;;;;;8.65;nan;99945.97;5009784;28;20069;-72
2022/04/22 01:51:16;;;;;;;12.23;7.47;;;;;;;8.56;nan;99909.75;5005633;28;20058;-73
2022/04/22 01:53:42;;;;;;;10.57;7.47;;;;;;;8.65;nan;99916.28;5009718;28;20783;-72
2022/04/22 01:56:08;;;;;;;15.23;7.95;;;;;;;8.56;nan;99891.38;5012850;28;20041;-72
2022/04/22 01:58:33;;;;;;;11.57;8.15;;;;;;;8.49;nan;99889.66;5013826;28;20030;-72
2022/04/22 02:00:58;;;;;;;11.05;7.90;;;;;;;8.52;nan;99889.22;5011567;28;20048;-73
2022/04/22 02:03:24;;;;;;;11.13;7.25;;;;;;;8.54;nan;99885.56;5013115;28;20041;-72
2022/04/22 02:05:49;;;;;;;11.23;7.90;;;;;;;8.30;nan;99836.41;5013036;28;20076;-71
2022/04/22 02:08:15;;;;;;;10.25;7.57;;;;;;;8.58;nan;99868.34;5012252;28;20502;-71
2022/04/22 02:10:43;;;;;;;14.23;7.75;;;;;;;8.62;nan;99859.81;5012725;28;20540;-71
2022/04/22 02:13:09;;;;;;;14.52;8.35;;;;;;;8.59;nan;99825.31;5008833;28;20515;-71
2022/04/22 02:15:35;;;;;;;11.00;7.10;;;;;;;8.47;nan;99780.69;5004325;28;20042;-70
2022/04/22 02:18:00;;;;;;;11.55;7.47;;;;;;;8.56;nan;99784.59;5013168;28;20552;-71
2022/04/22 02:20:26;;;;;;;17.20;7.85;;;;;;;8.35;nan;99771.97;5012362;28;20171;-72
2022/04/22 02:22:52;;;;;;;10.85;7.32;;;;;;;8.55;nan;99832.03;5012085;28;20239;-72
2022/04/22 02:25:17;;;;;;;13.07;7.15;;;;;;;8.41;nan;99823.59;5012704;28;20061;-71
2022/04/22 02:30:28;;;;;;;12.38;7.95;;;;;;;8.44;nan;99859.88;4998509;28;20494;-71
2022/04/22 02:32:54;;;;;;;10.07;7.35;;;;;;;8.38;nan;99858.09;5005437;28;20042;-71
2022/04/22 02:35:21;;;;;;;10.90;7.75;;;;;;;8.32;nan;99850.09;5011041;28;20034;-73
2022/04/22 02:37:47;;;;;;;11.05;7.57;;;;;;;8.23;nan;99842.75;5012565;28;20179;-71
2022/04/22 02:45:26;;;;;;;12.15;7.10;;;;;;;8.28;nan;99853.38;5011056;28;20125;-71
2022/04/22 02:45:43;;;;;;;11.30;7.72;;;;;;;8.23;nan;99842.75;5024370;28;20045;-72
2022/04/22 02:48:09;;;;;;;10.43;7.38;;;;;;;8.15;nan;99825.53;5008824;28;20033;-73
2022/04/22 02:50:34;;;;;;;11.95;7.72;;;;;;;8.21;nan;99829.88;5010670;28;20080;-71
2022/04/22 02:53:00;;;;;;;11.75;7.53;;;;;;;8.07;nan;99810.13;5011298;28;20061;-71
2022/04/22 02:55:25;;;;;;;14.20;8.23;;;;;;;8.11;nan;99813.88;5008959;28;20038;-72
2022/04/22 02:57:50;;;;;;;13.07;8.20;;;;;;;8.14;nan;99810.81;5008575;28;20056;-72
2022/04/22 03:00:16;;;;;;;13.07;7.90;;;;;;;8.14;nan;99807.38;5010433;28;20065;-71
2022/04/22 03:02:44;;;;;;;15.55;8.40;;;;;;;8.14;nan;99802.97;5009205;28;20380;-71
2022/04/22 03:05:10;;;;;;;11.20;7.80;;;;;;;8.15;nan;99812.41;5011498;28;20744;-71
2022/04/22 03:07:37;;;;;;;11.23;7.45;;;;;;;8.16;nan;99821.88;5012671;28;20041;-72
2022/04/22 03:10:03;;;;;;;11.52;7.72;;;;;;;8.13;nan;99805.78;5027057;28;20022;-71
2022/04/22 03:12:28;;;;;;;11.63;7.75;;;;;;;8.14;nan;99813.44;5043768;28;20034;-72
2022/04/22 03:14:53;;;;;;;12.75;8.00;;;;;;;7.87;nan;99771.03;5025742;28;20044;-72
2022/04/22 03:17:19;;;;;;;10.32;7.18;;;;;;;8.12;nan;99807.63;5024798;28;20022;-71
2022/04/22 03:19:45;;;;;;;13.07;7.70;;;;;;;8.10;nan;99799.16;5010053;28;20045;-71
2022/04/22 03:22:10;;;;;;;11.85;7.88;;;;;;;8.13;nan;99811.84;5025458;28;20045;-71
2022/04/22 03:24:36;;;;;;;13.07;7.97;;;;;;;8.17;nan;99820.06;5013015;28;20068;-71
2022/04/22 03:27:02;;;;;;;12.77;7.90;;;;;;;8.01;nan;99798.69;5010829;28;20122;-71
2022/04/22 03:29:27;;;;;;;12.05;7.65;;;;;;;8.19;nan;99831.09;5026473;28;20117;-71
2022/04/22 03:31:54;;;;;;;14.50;7.93;;;;;;;8.21;nan;99823.81;5010750;28;20037;-71
2022/04/22 03:34:19;;;;;;;11.75;7.95;;;;;;;8.23;nan;99838.31;5007431;28;20026;-71
2022/04/22 03:36:45;;;;;;;10.07;7.57;;;;;;;8.14;nan;99818.69;5007365;28;20030;-74
2022/04/22 03:39:10;;;;;;;12.85;7.82;;;;;;;8.14;nan;99818.69;5010285;28;20133;-73
2022/04/22 03:41:38;;;;;;;13.85;8.02;;;;;;;8.20;nan;99827.47;5022000;28;20033;-73
2022/04/22 03:44:03;;;;;;;11.77;8.32;;;;;;;8.27;nan;99836.06;5011667;28;20022;-73
2022/04/22 03:46:30;;;;;;;13.68;8.07;;;;;;;8.22;nan;99822.81;5010659;28;20034;-72
2022/04/22 03:48:56;;;;;;;11.13;8.05;;;;;;;8.28;nan;99816.66;5010961;28;20459;-71
2022/04/22 03:51:21;;;;;;;11.27;7.70;;;;;;;8.32;nan;99828.31;5027037;28;20455;-71
2022/04/22 03:53:48;;;;;;;12.43;8.05;;;;;;;8.24;nan;99829.44;5008666;28;20030;-71
2022/04/22 03:58:57;;;;;;;13.82;8.13;;;;;;;8.26;nan;99840.50;5008944;28;20034;-72
2022/04/22 04:01:23;;;;;;;14.25;7.88;;;;;;;8.26;nan;99835.25;5010256;28;20042;-73
2022/04/22 04:03:48;;;;;;;12.13;7.97;;;;;;;8.23;nan;99812.09;5009868;28;20476;-71
2022/04/22 04:06:13;;;;;;;10.20;7.32;;;;;;;8.35;nan;99837.56;5010509;28;20772;-71
2022/04/22 04:08:39;;;;;;;15.80;8.25;;;;;;;8.38;nan;99839.72;5007627;28;20088;-72
2022/04/22 04:16:45;;;;;;;9.77;7.32;;;;;;;8.39;nan;99847.38;4929138;29;20190;-73
2022/04/22 04:24:39;;;;;;;11.82;8.20;;;;;;;8.32;nan;99855.34;4929041;29;20045;-74
2022/04/22 04:27:04;;;;;;;11.43;8.02;;;;;;;8.40;nan;99869.19;4929624;29;20770;-73
2022/04/22 04:29:30;;;;;;;12.27;7.93;;;;;;;8.45;nan;99877.19;4930023;29;20082;-74
2022/04/22 04:31:55;;;;;;;14.60;8.85;;;;;;;8.37;nan;99867.00;4929542;29;20194;-73
2022/04/22 04:34:20;;;;;;;12.95;8.70;;;;;;;8.34;nan;99872.69;4928331;29;20046;-72
2022/04/22 04:36:46;;;;;;;15.10;8.50;;;;;;;8.28;nan;99871.75;4938539;29;20043;-72
2022/04/22 04:39:11;;;;;;;14.65;9.05;;;;;;;8.34;nan;99872.69;4938291;29;20032;-72
2022/04/22 04:41:36;;;;;;;14.82;9.50;;;;;;;8.29;nan;99878.59;4935756;29;20049;-71
2022/04/22 04:44:02;;;;;;;13.48;9.32;;;;;;;8.34;nan;99886.59;4927778;29;20050;-72
2022/04/22 04:46:27;;;;;;;17.60;9.30;;;;;;;8.22;nan;99867.41;4930546;29;20062;-71
2022/04/22 04:48:56;;;;;;;19.92;10.52;;;;;;;8.20;nan;99867.63;4928192;29;20405;-72
2022/04/22 04:51:21;;;;;;;15.27;9.98;;;;;;;8.06;nan;99830.28;4933351;28;20069;-73
2022/04/22 04:53:46;;;;;;;15.15;9.32;;;;;;;8.35;nan;99869.03;5009742;28;20034;-72
2022/04/22 04:56:12;;;;;;;14.75;10.20;;;;;;;8.26;nan;99858.88;5008509;28;20065;-72
2022/04/22 04:58:38;;;;;;;17.38;10.35;;;;;;;8.24;nan;99854.88;5007155;28;20090;-72
2022/04/22 05:01:04;;;;;;;16.83;10.52;;;;;;;8.22;nan;99865.56;5006810;28;20108;-71
2022/04/22 05:03:29;;;;;;;15.80;10.48;;;;;;;8.27;nan;99875.41;5007106;28;20528;-72
2022/04/22 05:05:55;;;;;;;17.83;10.23;;;;;;;8.24;nan;99868.78;5028105;28;20474;-73
2022/04/22 05:08:21;;;;;;;19.48;10.35;;;;;;;8.18;nan;99858.38;5009033;28;20089;-72
2022/04/22 05:10:46;;;;;;;16.48;10.73;;;;;;;8.26;nan;99865.91;5007127;28;20080;-74
2022/04/22 05:13:11;;;;;;;20.25;11.30;;;;;;;8.23;nan;99861.13;5004761;28;20073;-72
2022/04/22 05:15:39;;;;;;;15.52;10.32;;;;;;;8.21;nan;99864.00;5006411;28;20037;-72
2022/04/22 05:18:04;;;;;;;17.50;10.85;;;;;;;8.11;nan;99845.34;5006298;28;20562;-72
2022/04/22 05:20:32;;;;;;;17.50;11.55;;;;;;;8.19;nan;99863.41;5003781;28;20030;-72
2022/04/22 05:22:58;;;;;;;18.73;11.70;;;;;;;8.11;nan;99858.44;5008039;28;20791;-73
2022/04/22 05:25:24;;;;;;;21.92;12.73;;;;;;;8.09;nan;99852.63;5005344;28;20399;-71
2022/04/22 05:27:49;;;;;;;19.95;12.45;;;;;;;8.07;nan;99855.50;5003941;28;20034;-73
2022/04/22 05:33:03;;;;;;;20.35;12.85;;;;;;;7.97;nan;99854.41;5012741;28;20432;-72
2022/04/22 05:35:29;;;;;;;22.65;12.27;;;;;;;7.82;nan;99839.06;5012705;28;20387;-71
2022/04/22 05:38:05;;;;;;;18.83;12.60;;;;;;;7.78;nan;99837.88;5012670;28;20053;-71
2022/04/22 05:40:32;;;;;;;21.27;12.85;;;;;;;7.78;nan;99825.59;5010543;28;20030;-72
2022/04/22 05:42:58;;;;;;;20.85;12.65;;;;;;;7.81;nan;99829.59;5024475;28;20392;-71
2022/04/22 05:45:26;;;;;;;20.38;12.70;;;;;;;7.76;nan;99827.63;5012738;28;20030;-71
2022/04/22 05:47:52;;;;;;;21.30;13.07;;;;;;;7.52;nan;99789.22;5013187;28;20034;-72
2022/04/22 05:50:19;;;;;;;20.42;13.23;;;;;;;7.77;nan;99823.19;5013299;28;20036;-71
2022/04/22 05:52:45;;;;;;;21.33;13.48;;;;;;;7.78;nan;99819.53;5008176;28;20091;-72
2022/04/22 05:55:15;;;;;;;21.20;14.05;;;;;;;7.65;nan;99792.47;5028507;28;20038;-72
2022/04/22 05:57:40;;;;;;;20.85;13.25;;;;;;;7.69;nan;99802.53;5016633;28;20062;-70
2022/04/22 06:00:09;;;;;;;23.73;13.15;;;;;;;7.80;nan;99820.13;5028762;28;20064;-73
2022/04/22 06:02:35;;;;;;;23.02;14.68;;;;;;;7.79;nan;99814.09;5013622;28;20173;-72
2022/04/22 06:05:00;;;;;;;22.80;13.88;;;;;;;7.77;nan;99813.50;5012681;28;20132;-71
2022/04/22 06:07:26;;;;;;;21.52;13.68;;;;;;;7.76;nan;99805.88;5012076;28;20041;-73
2022/04/22 06:12:35;;;;;;;22.10;13.57;;;;;;;7.80;nan;99791.28;5006233;28;20046;-72
2022/04/22 06:15:02;;;;;;;21.77;13.80;;;;;;;7.75;nan;99762.34;5010948;28;20030;-71
2022/04/22 06:17:29;;;;;;;22.08;13.82;;;;;;;7.84;nan;99766.25;5011578;28;20040;-73
2022/04/22 06:19:56;;;;;;;24.45;13.43;;;;;;;7.88;nan;99773.44;5011267;28;20031;-73
2022/04/22 06:22:22;;;;;;;22.17;14.38;;;;;;;7.70;nan;99749.88;5016911;28;20026;-72
2022/04/22 06:24:47;;;;;;;21.30;14.50;;;;;;;7.83;nan;99759.41;5014638;28;20034;-72
2022/04/22 06:27:13;;;;;;;23.42;15.35;;;;;;;7.82;nan;99750.72;5012985;28;20096;-73
2022/04/22 06:29:38;;;;;;;23.65;13.73;;;;;;;7.88;nan;99743.81;5013792;28;20030;-72
2022/04/22 06:32:04;;;;;;;24.55;14.75;;;;;;;7.91;nan;99742.56;5022710;28;20060;-72
2022/04/22 06:34:30;;;;;;;23.65;13.57;;;;;;;7.92;nan;99737.09;5013951;28;20030;-71
2022/04/22 06:36:57;;;;;;;23.40;13.88;;;;;;;7.91;nan;99719.78;5025980;28;20496;-72
2022/04/22 06:39:22;;;;;;;22.67;14.02;;;;;;;8.04;nan;99719.56;5027234;28;20046;-71
2022/04/22 06:47:17;;;;;;;26.13;16.08;;;;;;;8.09;nan;99701.34;5027478;28;20078;-73
2022/04/22 06:49:42;;;;;;;24.90;16.67;;;;;;;8.19;nan;99721.78;5012368;28;20121;-73
2022/04/22 06:52:09;;;;;;;30.67;16.13;;;;;;;8.15;nan;99704.09;5027372;28;20045;-70
2022/04/22 06:54:34;;;;;;;26.95;16.20;;;;;;;8.27;nan;99708.31;5012582;28;20045;-72
2022/04/22 06:57:00;;;;;;;27.27;13.93;;;;;;;8.37;nan;99727.97;5012168;28;20042;-75
2022/04/22 06:59:27;;;;;;;19.38;13.02;;;;;;;8.47;nan;99736.09;5013292;28;20097;-74
2022/04/22 07:01:52;;;;;;;20.88;13.20;;;;;;;8.52;nan;99723.06;5014676;28;20034;-75
2022/04/22 07:04:18;;;;;;;26.90;11.65;;;;;;;8.56;nan;99705.06;5026040;28;20042;-76
2022/04/22 07:06:45;;;;;;;17.00;11.35;;;;;;;8.63;nan;99700.50;5010648;28;20034;-74
2022/04/22 07:09:11;;;;;;;18.90;10.88;;;;;;;8.73;nan;99703.34;5007410;28;20033;-73
2022/04/22 07:11:40;;;;;;;17.25;10.57;;;;;;;8.94;nan;99718.50;5011052;28;20048;-71
2022/04/22 07:14:06;;;;;;;16.58;11.00;;;;;;;9.04;nan;99717.91;5012209;28;20057;-74
2022/04/22 07:16:32;;;;;;;18.00;11.15;;;;;;;;;;5000748;28;20843;-71
2022/04/22 07:18:59;;;;;;;19.00;11.32;;;;;;;9.23;nan;99688.88;5010931;28;20124;-71
2022/04/22 07:21:25;;;;;;;16.92;10.85;;;;;;;9.47;nan;99695.63;5008342;28;20030;-72
2022/04/22 07:23:53;;;;;;;16.60;11.50;;;;;;;9.64;nan;99692.25;5027612;28;20065;-71
2022/04/22 07:26:20;;;;;;;18.42;10.90;;;;;;;9.68;nan;99669.72;5009549;28;20034;-71
2022/04/22 07:28:50;;;;;;;19.35;11.63;;;;;;;9.94;nan;99684.91;5009660;28;20069;-71
2022/04/22 07:31:18;;;;;;;19.73;11.82;;;;;;;10.12;nan;99690.97;5009933;28;20036;-71
2022/04/22 07:33:43;;;;;;;18.50;11.75;;;;;;;10.17;nan;99688.41;5009186;28;20029;-71
2022/04/22 07:36:09;;;;;;;21.55;12.15;;;;;;;10.37;nan;99690.59;5004959;28;20061;-73
2022/04/22 07:38:34;;;;;;;21.85;11.68;;;;;;;10.48;nan;99671.25;5006630;28;20049;-73
2022/04/22 07:41:04;;;;;;;19.30;12.38;;;;;;;10.60;nan;99669.31;5011058;28;20034;-73
2022/04/22 07:48:59;;;;;;;20.10;12.07;;;;;;;11.22;nan;99659.53;5009216;28;20073;-73
2022/04/22 07:51:27;;;;;;;17.27;10.75;;;;;;;11.36;nan;99641.50;5008831;28;20125;-72
2022/04/22 07:53:56;;;;;;;18.73;10.47;;;;;;;11.48;nan;99629.75;5009782;28;20062;-72
2022/04/22 07:56:22;;;;;;;17.35;10.15;;;;;;;11.60;nan;99629.59;5011493;28;20025;-72
2022/04/22 07:58:48;;;;;;;13.50;9.40;;;;;;;11.73;nan;99641.56;5011199;28;20361;-72
2022/04/22 08:01:13;;;;;;;18.08;9.88;;;;;;;11.90;nan;99630.94;5010191;28;20045;-72
2022/04/22 08:03:38;;;;;;;15.27;10.02;;;;;;;12.06;nan;99632.63;5010434;28;20550;-75
2022/04/22 08:06:06;;;;;;;17.63;10.55;;;;;;;12.16;nan;99631.91;5008439;28;20144;-75
2022/04/22 08:08:31;;;;;;;12.40;8.68;;;;;;;;;;5007180;28;20091;-73
2022/04/22 08:10:57;;;;;;;17.92;9.50;;;;;;;;;;5024485;28;20781;-75
2022/04/22 08:13:24;;;;;;;17.20;9.82;;;;;;;;;;5008922;28;20045;-73
2022/04/22 08:15:50;;;;;;;14.43;8.57;;;;;;;;;;5022139;28;20049;-74
2022/04/22 08:18:15;;;;;;;18.60;9.20;;;;;;;;;;5008995;28;20037;-75
2022/04/22 08:20:40;;;;;;;12.37;6.67;;;;;;;;;;5024227;28;20033;-73
2022/04/22 08:23:06;;;;;;;15.90;8.37;;;;;;;;;;5025149;28;20128;-74
2022/04/22 08:25:31;;;;;;;12.13;7.60;;;;;;;;;;5011110;28;20539;-74
2022/04/22 08:27:57;;;;;;;11.15;7.57;;;;;;;13.46;nan;99539.66;5009046;28;20488;-73
2022/04/22 08:30:22;;;;;;;12.90;7.78;;;;;;;;;;5010667;28;20413;-74
2022/04/22 08:32:47;;;;;;;13.87;7.37;;;;;;;;;;5010439;28;20041;-71
2022/04/22 08:35:13;;;;;;;12.75;7.63;;;;;;;;;;5010035;28;20251;-73
2022/04/22 08:37:38;;;;;;;13.07;7.72;;;;;;;;;;5009612;28;20049;-75
2022/04/22 08:40:07;;;;;;;12.38;8.10;;;;;;;;;;5005606;28;20042;-73
2022/04/22 08:42:34;;;;;;;11.30;8.32;;;;;;;;;;5009307;28;20064;-74
2022/04/22 08:44:59;;;;;;;13.65;8.63;;;;;;;;;;5009377;28;20065;-74
2022/04/22 08:50:16;;;;;;;19.85;9.02;;;;;;;;;;5010508;28;20026;-75
2022/04/22 08:52:42;;;;;;;15.80;8.57;;;;;;;;;;5011021;28;20038;-76
2022/04/22 08:55:10;;;;;;;13.93;8.73;;;;;;;14.34;nan;99543.72;5004755;28;20038;-73
2022/04/22 08:57:35;;;;;;;13.18;9.07;;;;;;;14.47;nan;99590.81;5004517;28;20485;-73
2022/04/22 09:00:02;;;;;;;13.73;8.90;;;;;;;;;;5009209;28;20153;-72
2022/04/22 09:02:28;;;;;;;14.27;10.20;;;;;;;;;;5011080;28;20439;-72
2022/04/22 09:04:59;;;;;;;14.75;8.38;;;;;;;;;;5012097;28;20080;-73
2022/04/22 09:07:28;;;;;;;17.85;8.90;;;;;;;;;;5012676;28;20664;-72
2022/04/22 09:09:54;;;;;;;16.95;8.30;;;;;;;;;;5011920;28;20083;-73
2022/04/22 09:12:21;;;;;;;17.42;8.93;;;;;;;;;;5013845;28;20038;-73
2022/04/22 09:14:49;;;;;;;16.27;8.20;;;;;;;;;;5014186;28;20041;-73
2022/04/22 09:17:15;;;;;;;11.90;7.45;;;;;;;;;;5028801;28;20080;-72
2022/04/22 09:19:46;;;;;;;11.07;6.47;;;;;;;;;;5013677;28;20034;-73
2022/04/22 09:22:17;;;;;;;11.55;6.55;;;;;;;;;;5012536;28;20038;-72
2022/04/22 09:24:49;;;;;;;11.85;6.82;;;;;;;;;;5011561;28;20707;-72
2022/04/22 09:27:15;;;;;;;15.77;6.63;;;;;;;;;;5013949;28;20495;-72
2022/04/22 09:29:59;;;;;;;12.02;6.57;;;;;;;;;;5013264;28;20035;-71
2022/04/22 09:32:25;;;;;;;12.32;6.25;;;;;;;;;;5028524;28;20114;-72
2022/04/22 09:34:51;;;;;;;10.75;5.85;;;;;;;;;;5012427;28;20125;-73
2022/04/22 09:42:55;;;;;;;16.60;6.43;;;;;;;;;;5010318;28;20049;-73
2022/04/22 09:45:21;;;;;;;8.55;5.32;;;;;;;;;;5012136;28;20396;-70
2022/04/22 09:47:57;;;;;;;11.00;6.07;;;;;;;;;;5028327;28;20091;-71
2022/04/22 09:50:39;;;;;;;11.05;5.32;;;;;;;;;;5010258;28;20065;-72
2022/04/22 09:53:04;;;;;;;9.43;5.65;;;;;;;;;;5012860;28;20033;-73
2022/04/22 09:55:34;;;;;;;12.52;6.30;;;;;;;16.15;nan;99532.38;5028039;28;20057;-73
2022/04/22 09:57:59;;;;;;;11.35;5.70;;;;;;;;;;5011158;28;20061;-73
2022/04/22 10:00:27;;;;;;;10.80;5.97;;;;;;;16.35;nan;99526.84;5013030;28;20069;-73
2022/04/22 10:02:53;;;;;;;9.43;5.68;;;;;;;;;;5010620;28;20081;-74
2022/04/22 10:05:19;;;;;;;10.95;5.72;;;;;;;;;;5022009;28;20038;-72
2022/04/22 10:07:45;;;;;;;10.13;6.03;;;;;;;;;;5013411;28;20045;-73
2022/04/22 10:10:11;;;;;;;9.80;5.68;;;;;;;;;;5019721;28;20026;-72
2022/04/22 10:12:37;;;;;;;10.15;5.90;;;;;;;;;;5023548;28;20048;-71
2022/04/22 10:15:03;;;;;;;13.82;6.35;;;;;;;;;;5037314;28;20046;-72
2022/04/22 10:17:29;;;;;;;13.02;5.82;;;;;;;;;;5022845;28;20049;-72
2022/04/22 10:19:55;;;;;;;10.52;6.13;;;;;;;;;;5027487;28;20037;-72
2022/04/22 10:22:21;;;;;;;12.68;6.18;;;;;;;;;;5036875;28;20068;-71
2022/04/22 10:24:49;;;;;;;10.23;5.57;;;;;;;17.19;nan;99458.91;5027040;28;20072;-73
2022/04/22 10:27:15;;;;;;;11.68;6.20;;;;;;;;;;5026583;28;20038;-75
2022/04/22 10:29:41;;;;;;;13.15;6.25;;;;;;;;;;5015520;28;20045;-75
2022/04/22 10:32:07;;;;;;;11.55;5.68;;;;;;;;;;5014057;28;20041;-74
2022/04/22 10:34:55;;;;;;;12.25;5.80;;;;;;;;;;5009763;28;20042;-74
2022/04/22 10:37:23;;;;;;;10.85;5.50;;;;;;;;;;5006424;28;20048;-73
2022/04/22 10:39:51;;;;;;;10.20;5.47;;;;;;;17.89;nan;99442.00;5010679;28;20041;-75
2022/04/22 10:42:17;;;;;;;12.70;5.18;;;;;;;;;;5000404;28;20077;-73
2022/04/22 10:47:57;;;;;;;11.05;4.63;;;;;;;;;;5015816;28;20046;-73
2022/04/22 10:50:42;;;;;;;12.68;6.40;;;;;;;18.43;nan;99384.34;5010757;28;20044;-74
2022/04/22 10:53:24;;;;;;;12.20;6.00;;;;;;;18.51;nan;99350.84;5016134;28;20509;-74
2022/04/22 10:55:49;;;;;;;12.50;5.70;;;;;;;;;;5019317;28;20038;-73
2022/04/22 10:58:15;;;;;;;9.05;5.35;;;;;;;;;;5021373;28;20115;-74
2022/04/22 11:00:44;;;;;;;13.27;4.37;;;;;;;18.84;nan;99358.59;5039645;28;20120;-73
2022/04/22 11:03:19;;;;;;;9.07;3.70;;;;;;;;;;5022794;28;20275;-73
2022/04/22 11:05:46;;;;;;;9.35;3.50;;;;;;;;;;5016234;28;20427;-73
2022/04/22 11:08:19;;;;;;;8.15;3.60;;;;;;;19.25;nan;99345.00;5016201;28;20065;-73
2022/04/22 11:10:56;;;;;;;10.02;4.00;;;;;;;19.26;nan;99354.56;5013813;28;20525;-74
2022/04/22 11:13:29;;;;;;;11.77;4.10;;;;;;;19.36;nan;99358.06;5015059;28;20488;-70
2022/04/22 11:15:59;;;;;;;8.70;3.30;;;;;;;19.34;nan;99307.66;5012909;28;20077;-72
2022/04/22 11:18:25;;;;;;;6.22;3.03;;;;;;;19.40;nan;99389.19;5008350;28;20092;-73
2022/04/22 11:20:58;;;;;;;8.35;3.20;;;;;;;19.60;nan;99349.66;5008339;28;20057;-73
2022/04/22 11:23:23;;;;;;;12.35;3.33;;;;;;;;;;5012327;28;20034;-73
2022/04/22 11:25:51;;;;;;;12.93;2.92;;;;;;;19.77;nan;99301.63;5012842;28;20092;-74
2022/04/22 11:28:19;;;;;;;9.13;3.45;;;;;;;19.99;nan;99340.78;5011371;28;20124;-72
2022/04/22 11:30:44;;;;;;;10.40;2.50;;;;;;;20.11;nan;99295.53;5006655;28;20049;-73
2022/04/22 11:33:21;;;;;;;7.05;2.45;;;;;;;20.17;nan;99320.22;5024585;28;20030;-72
2022/04/22 11:35:53;;;;;;;10.20;2.65;;;;;;;20.18;nan;99297.72;5010235;28;20041;-74
2022/04/22 11:38:19;;;;;;;13.07;2.63;;;;;;;20.24;nan;99288.44;5009472;28;20049;-73
2022/04/22 11:40:49;;;;;;;13.60;3.08;;;;;;;20.32;nan;99311.69;5010497;28;20080;-72
2022/04/22 11:43:14;;;;;;;;;;;;;;;20.36;nan;99325.25;5011028;28;20124;-72
2022/04/22 11:45:45;;;;;;;9.65;2.63;;;;;;;20.50;nan;99355.25;5008818;28;19991;-74
2022/04/22 11:48:12;;;;;;;9.63;2.22;;;;;;;20.44;nan;99286.22;5010972;28;20038;-74
2022/04/22 11:50:40;;;;;;;11.25;3.30;;;;;;;20.50;nan;99328.53;5026543;28;20042;-75
2022/04/22 11:53:17;;;;;;;14.20;2.60;;;;;;;20.49;nan;99273.44;5005543;28;20068;-73
2022/04/22 11:55:43;;;;;;;10.35;3.03;;;;;;;20.57;nan;99291.41;5004147;28;20046;-71
2022/04/22 11:58:24;;;;;;;9.52;2.45;;;;;;;20.71;nan;99256.44;5010774;28;20125;-74
2022/04/22 12:06:24;;;;;;;11.70;2.40;;;;;;;21.29;nan;99261.38;4946838;28;19918;-71
2022/04/22 12:09:03;;;;;;;10.18;2.75;;;;;;;21.42;nan;99258.47;4927099;28;20133;-73
2022/04/22 12:11:29;;;;;;;10.35;2.75;;;;;;;21.57;nan;99190.16;4945512;28;20809;-73
2022/04/22 12:13:55;;;;;;;10.05;2.40;;;;;;;21.55;nan;99237.09;4948837;28;20082;-72
2022/04/22 12:16:32;;;;;;;10.77;2.47;;;;;;;21.71;nan;99224.69;4950147;28;20039;-73
2022/04/22 12:19:00;;;;;;;12.10;3.03;;;;;;;21.82;nan;99231.22;4952475;28;20082;-73
2022/04/22 12:21:31;;;;;;;5.32;2.35;;;;;;;21.95;nan;99217.88;4950810;28;20521;-73
2022/04/22 12:24:02;;;;;;;14.90;3.00;;;;;;;;;;4961742;28;20057;-74
2022/04/22 12:26:34;;;;;;;10.40;2.67;;;;;;;22.12;nan;99219.59;4962842;28;20068;-72
2022/04/22 12:29:13;;;;;;;8.85;2.88;;;;;;;22.24;nan;99230.38;4949007;29;20039;-71
2022/04/22 12:31:43;;;;;;;12.20;2.40;;;;;;;22.28;nan;99213.31;4948654;28;20050;-73
2022/04/22 12:34:14;;;;;;;11.75;3.00;;;;;;;22.35;nan;99203.94;4951576;28;20035;-73
2022/04/22 12:36:53;;;;;;;7.15;2.47;;;;;;;22.41;nan;99216.00;4946639;29;20051;-71
2022/04/22 12:39:38;;;;;;;12.25;2.63;;;;;;;22.46;nan;99195.13;4944481;28;20051;-72
2022/04/22 12:42:05;;;;;;;10.77;3.22;;;;;;;22.44;nan;99186.63;5024265;28;20127;-73
2022/04/22 12:44:30;;;;;;;6.97;2.40;;;;;;;;;;5008397;28;20038;-72
2022/04/22 12:52:46;;;;;;;13.13;3.08;;;;;;;22.54;nan;99163.94;5007345;28;20045;-72
2022/04/22 12:55:16;;;;;;;8.82;2.88;;;;;;;22.68;nan;99175.13;5029383;28;20037;-72
2022/04/22 12:57:42;;;;;;;10.20;2.63;;;;;;;22.69;nan;99128.38;5008659;28;20037;-72
2022/04/22 13:00:13;;;;;;;11.02;2.45;;;;;;;22.82;nan;99142.59;5009767;28;20048;-71
2022/04/22 13:02:39;;;;;;;12.32;2.67;;;;;;;22.85;nan;99141.91;5010157;28;20068;-71
2022/04/22 13:05:06;;;;;;;10.63;2.78;;;;;;;22.82;nan;99169.44;5009562;28;20472;-72
2022/04/22 13:08:09;;;;;;;11.95;2.55;;;;;;;22.91;nan;99167.41;5009966;28;20026;-72
2022/04/22 13:10:34;;;;;;;8.00;2.63;;;;;;;22.89;nan;99196.50;5000429;28;20480;-74
2022/04/22 13:12:59;;;;;;;9.52;2.67;;;;;;;22.94;nan;99152.53;5008974;28;20065;-72
2022/04/22 13:15:25;;;;;;;13.80;2.45;;;;;;;22.91;nan;99145.94;5009588;28;20030;-72
2022/04/22 13:17:51;;;;;;;16.55;2.97;;;;;;;22.88;nan;99154.66;5009123;28;20469;-74
2022/04/22 13:20:18;;;;;;;10.77;2.45;;;;;;;22.81;nan;99127.59;5010099;28;20118;-75